createdAt,value
2017-08-18T00:00:59.610Z,101222.42
2017-08-18T00:03:27.982Z,101230.92
2017-08-18T00:05:56.778Z,101219.44
2017-08-18T00:08:25.126Z,101225.59
2017-08-18T00:10:53.502Z,101215.86
2017-08-18T00:13:22.959Z,101217.86
2017-08-18T00:15:51.345Z,101220.81
2017-08-18T00:18:19.707Z,101213.27
2017-08-18T00:20:48.604Z,101213.13
2017-08-18T00:23:16.945Z,101207.67
2017-08-18T00:25:46.077Z,101217.28
2017-08-18T00:28:15.063Z,101216.37
2017-08-18T00:30:43.409Z,101215.59
2017-08-18T00:33:12.532Z,101209.38
2017-08-18T00:35:41.305Z,101207.24
2017-08-18T00:38:09.664Z,101209.08
2017-08-18T00:40:38.835Z,101211.59
2017-08-18T00:43:07.569Z,101212.45
2017-08-18T00:45:36.036Z,101202.83
2017-08-18T00:48:04.391Z,101204.84
2017-08-18T00:50:33.552Z,101204.03
2017-08-18T00:53:01.929Z,101204.91
2017-08-18T00:55:30.312Z,101200.64
2017-08-18T00:57:58.948Z,101199.24
2017-08-18T01:00:27.313Z,101206.77
2017-08-18T01:02:55.666Z,101194.84
2017-08-18T01:05:24.310Z,101193.87
2017-08-18T01:07:52.681Z,101188.03
2017-08-18T01:10:21.039Z,101179.56
2017-08-18T01:12:49.987Z,101176.30
2017-08-18T01:15:18.345Z,101178.67
2017-08-18T01:17:46.693Z,101178.06
2017-08-18T01:20:16.433Z,101188.64
2017-08-18T01:22:44.806Z,101176.55
2017-08-18T01:25:13.187Z,101178.81
2017-08-18T01:27:41.854Z,101178.03
2017-08-18T01:30:10.251Z,101172.84
2017-08-18T01:32:38.625Z,101167.39
2017-08-18T01:35:07.552Z,101170.78
2017-08-18T01:37:35.899Z,101177.16
2017-08-18T01:40:04.267Z,101171.77
2017-08-18T01:42:33.210Z,101172.29
2017-08-18T01:45:01.574Z,101176.66
2017-08-18T01:47:29.896Z,101159.97
2017-08-18T01:49:58.522Z,101166.03
2017-08-18T01:52:26.870Z,101166.23
2017-08-18T01:54:55.265Z,101165.89
2017-08-18T01:57:24.302Z,101163.38
2017-08-18T01:59:52.666Z,101167.73
2017-08-18T02:02:20.993Z,101171.29
2017-08-18T02:04:49.644Z,101170.88
2017-08-18T02:07:17.990Z,101169.45
2017-08-18T02:09:46.348Z,101173.72
2017-08-18T02:12:15.016Z,101168.14
2017-08-18T02:14:43.381Z,101173.71
2017-08-18T02:17:11.738Z,101170.33
2017-08-18T02:19:40.535Z,101167.12
2017-08-18T02:22:08.883Z,101164.80
2017-08-18T02:24:37.235Z,101166.77
2017-08-18T02:27:05.873Z,101170.33
2017-08-18T02:29:34.233Z,101167.25
2017-08-18T02:32:03.366Z,101170.76
2017-08-18T02:34:32.150Z,101168.84
2017-08-18T02:37:00.522Z,101167.12
2017-08-18T02:39:28.894Z,101178.48
2017-08-18T02:41:57.683Z,101181.08
2017-08-18T02:44:26.050Z,101185.24
2017-08-18T02:46:54.410Z,101175.70
2017-08-18T02:49:23.235Z,101175.29
2017-08-18T02:51:51.580Z,101185.19
2017-08-18T02:54:20.698Z,101181.08
2017-08-18T02:56:49.494Z,101184.16
2017-08-18T02:59:17.871Z,101174.91
2017-08-18T03:01:46.225Z,101179.53
2017-08-18T03:04:15.030Z,101172.33
2017-08-18T03:06:43.381Z,101169.63
2017-08-18T03:09:11.740Z,101166.42
2017-08-18T03:11:40.588Z,101163.73
2017-08-18T03:14:08.935Z,101156.28
2017-08-18T03:16:37.307Z,101160.70
2017-08-18T03:19:05.943Z,101162.61
2017-08-18T03:21:34.301Z,101168.06
2017-08-18T03:24:02.632Z,101166.30
2017-08-18T03:26:31.481Z,101171.09
2017-08-18T03:28:59.818Z,101168.95
2017-08-18T03:31:28.157Z,101172.24
2017-08-18T03:33:56.924Z,101174.02
2017-08-18T03:36:25.302Z,101167.78
2017-08-18T03:38:53.667Z,101176.56
2017-08-18T03:41:22.489Z,101170.94
2017-08-18T03:43:50.879Z,101165.09
2017-08-18T03:46:19.230Z,101170.11
2017-08-18T03:48:47.991Z,101172.27
2017-08-18T03:51:16.347Z,101173.74
2017-08-18T03:53:44.713Z,101172.00
2017-08-18T03:56:13.347Z,101174.69
2017-08-18T03:58:41.701Z,101162.67
2017-08-18T04:01:10.038Z,101164.66
2017-08-18T04:03:38.720Z,101166.75
2017-08-18T04:06:07.119Z,101163.02
2017-08-18T04:08:35.490Z,101159.94
2017-08-18T04:11:04.577Z,101159.11
2017-08-18T04:13:32.926Z,101152.95
2017-08-18T04:16:01.274Z,101149.70
2017-08-18T04:18:29.893Z,101150.65
2017-08-18T04:20:58.251Z,101150.24
2017-08-18T04:23:26.626Z,101150.17
2017-08-18T04:25:55.304Z,101151.71
2017-08-18T04:28:23.648Z,101148.81
2017-08-18T04:30:52.018Z,101143.80
2017-08-18T04:33:20.896Z,101144.35
2017-08-18T04:35:49.264Z,101139.47
2017-08-18T04:38:17.599Z,101143.31
2017-08-18T04:40:46.248Z,101147.58
2017-08-18T04:43:14.602Z,101144.77
2017-08-18T04:45:42.937Z,101148.33
2017-08-18T04:48:11.791Z,101163.88
2017-08-18T04:50:40.173Z,101152.85
2017-08-18T04:53:08.520Z,101163.78
2017-08-18T04:55:37.384Z,101158.36
2017-08-18T04:58:05.730Z,101156.88
2017-08-18T05:00:34.060Z,101151.77
2017-08-18T05:03:02.678Z,101144.44
2017-08-18T05:05:31.022Z,101140.45
2017-08-18T05:07:59.379Z,101131.20
2017-08-18T05:10:28.143Z,101132.76
2017-08-18T05:12:56.488Z,101142.02
2017-08-18T05:15:25.609Z,101136.22
2017-08-18T05:17:54.316Z,101142.50
2017-08-18T05:20:22.680Z,101141.61
2017-08-18T05:22:51.022Z,101146.92
2017-08-18T05:25:19.655Z,101155.38
2017-08-18T05:27:47.990Z,101159.84
2017-08-18T05:30:17.129Z,101164.58
2017-08-18T05:32:45.912Z,101164.28
2017-08-18T05:35:14.271Z,101164.08
2017-08-18T05:37:42.620Z,101165.45
2017-08-18T05:40:11.753Z,101163.25
2017-08-18T05:42:40.127Z,101166.74
2017-08-18T05:45:08.476Z,101160.08
2017-08-18T05:47:37.351Z,101161.01
2017-08-18T05:50:05.736Z,101161.73
2017-08-18T05:52:34.095Z,101171.47
2017-08-18T05:55:02.762Z,101171.38
2017-08-18T05:57:31.143Z,101161.22
2017-08-18T05:59:59.510Z,101161.41
2017-08-18T06:02:28.323Z,101155.33
2017-08-18T06:04:56.671Z,101147.27
2017-08-18T06:07:25.019Z,101151.20
2017-08-18T06:09:53.665Z,101149.16
2017-08-18T06:12:22.012Z,101135.71
2017-08-18T06:14:50.358Z,101133.98
2017-08-18T06:17:19.008Z,101136.26
2017-08-18T06:19:47.378Z,101146.43
2017-08-18T06:22:15.737Z,101146.54
2017-08-18T06:24:44.701Z,101143.75
2017-08-18T06:27:13.078Z,101145.17
2017-08-18T06:29:41.433Z,101145.08
2017-08-18T06:32:10.085Z,101138.95
2017-08-18T06:34:38.446Z,101133.28
2017-08-18T06:37:06.849Z,101133.23
2017-08-18T06:39:35.717Z,101133.38
2017-08-18T06:42:04.058Z,101137.12
2017-08-18T06:44:32.407Z,101134.83
2017-08-18T06:47:01.370Z,101134.57
2017-08-18T06:49:29.711Z,101137.08
2017-08-18T06:51:58.053Z,101139.64
2017-08-18T06:54:26.685Z,101139.20
2017-08-18T06:56:55.032Z,101135.17
2017-08-18T06:59:23.395Z,101142.70
2017-08-18T07:01:52.069Z,101137.25
2017-08-18T07:04:20.407Z,101133.92
2017-08-18T07:06:49.552Z,101131.26
2017-08-18T07:09:18.751Z,101135.25
2017-08-18T07:11:47.076Z,101126.39
2017-08-18T07:14:16.207Z,101119.28
2017-08-18T07:16:45.005Z,101107.67
2017-08-18T07:19:13.351Z,101116.38
2017-08-18T07:21:41.717Z,101109.70
2017-08-18T07:24:10.441Z,101116.56
2017-08-18T07:26:38.793Z,101105.02
2017-08-18T07:29:07.929Z,101110.80
2017-08-18T07:31:36.864Z,101112.77
2017-08-18T07:34:05.231Z,101118.04
2017-08-18T07:36:33.703Z,101112.89
2017-08-18T07:39:02.567Z,101113.67
2017-08-18T07:41:31.093Z,101103.56
2017-08-18T07:43:59.438Z,101099.14
2017-08-18T07:46:28.124Z,101109.16
2017-08-18T07:48:56.488Z,101103.77
2017-08-18T07:51:24.835Z,101101.36
2017-08-18T07:53:54.560Z,101113.02
2017-08-18T07:56:22.932Z,101119.78
2017-08-18T07:58:51.277Z,101120.52
2017-08-18T08:01:19.894Z,101124.31
2017-08-18T08:03:48.256Z,101120.00
2017-08-18T08:06:16.626Z,101123.80
2017-08-18T08:08:45.287Z,101112.55
2017-08-18T08:11:13.690Z,101118.61
2017-08-18T08:13:42.076Z,101132.55
2017-08-18T08:16:10.957Z,101120.81
2017-08-18T08:18:39.358Z,101118.73
2017-08-18T08:21:07.706Z,101119.77
2017-08-18T08:23:36.392Z,101120.25
2017-08-18T08:26:04.819Z,101121.97
2017-08-18T08:28:33.939Z,101120.84
2017-08-18T08:31:02.745Z,101112.41
2017-08-18T08:33:31.131Z,101110.35
2017-08-18T08:35:59.491Z,101110.00
2017-08-18T08:38:28.634Z,101121.02
2017-08-18T08:40:56.977Z,101109.20
2017-08-18T08:43:56.294Z,101099.92
2017-08-18T08:46:24.639Z,101094.97
2017-08-18T08:48:52.976Z,101100.94
2017-08-18T08:51:21.763Z,101085.77
2017-08-18T08:53:50.932Z,101078.76
2017-08-18T08:56:19.316Z,101085.00
2017-08-18T08:58:48.181Z,101076.94
2017-08-18T09:01:16.555Z,101085.78
2017-08-18T09:03:44.908Z,101086.95
2017-08-18T09:06:13.618Z,101084.75
2017-08-18T09:08:41.996Z,101074.20
2017-08-18T09:11:10.377Z,101070.23
2017-08-18T09:13:39.017Z,101069.84
2017-08-18T09:16:07.370Z,101069.79
2017-08-18T09:18:35.732Z,101076.36
2017-08-18T09:21:05.045Z,101075.99
2017-08-18T09:23:33.407Z,101096.66
2017-08-18T09:26:01.764Z,101103.77
2017-08-18T09:28:30.607Z,101104.78
2017-08-18T09:30:58.962Z,101103.70
2017-08-18T09:33:27.351Z,101094.09
2017-08-18T09:35:56.216Z,101088.55
2017-08-18T09:38:24.549Z,101095.89
2017-08-18T09:40:52.920Z,101099.41
2017-08-18T09:43:21.983Z,101111.33
2017-08-18T09:45:50.368Z,101112.70
2017-08-18T09:48:37.086Z,101105.98
2017-08-18T09:51:23.196Z,101089.27
2017-08-18T09:54:09.660Z,101074.98
2017-08-18T09:56:55.589Z,101070.62
2017-08-18T09:59:24.461Z,101080.56
2017-08-18T10:01:52.816Z,101092.95
2017-08-18T10:04:21.224Z,101081.88
2017-08-18T10:06:50.104Z,101082.48
2017-08-18T10:09:18.484Z,101070.41
2017-08-18T10:11:46.865Z,101063.17
2017-08-18T10:14:15.515Z,101057.68
2017-08-18T10:16:43.864Z,101053.54
2017-08-18T10:19:12.279Z,101066.03
2017-08-18T10:21:41.403Z,101060.48
2017-08-18T10:24:09.780Z,101055.22
2017-08-18T10:26:38.143Z,101058.46
2017-08-18T10:29:07.051Z,101053.29
2017-08-18T10:31:35.427Z,101055.62
2017-08-18T10:34:03.778Z,101053.87
2017-08-18T10:36:32.535Z,101043.59
2017-08-18T10:39:00.919Z,101045.47
2017-08-18T10:41:29.289Z,101042.33
2017-08-18T10:43:58.110Z,101036.27
2017-08-18T10:46:26.459Z,101035.62
2017-08-18T10:48:55.423Z,101031.86
2017-08-18T10:51:24.071Z,101028.53
2017-08-18T10:53:52.455Z,101024.19
2017-08-18T10:56:20.839Z,101019.16
2017-08-18T10:58:49.647Z,101017.74
2017-08-18T11:01:18.006Z,101019.02
2017-08-18T11:03:46.340Z,101015.17
2017-08-18T11:06:15.078Z,101028.84
2017-08-18T11:08:43.447Z,101033.30
2017-08-18T11:11:12.562Z,101036.84
2017-08-18T11:13:41.176Z,101044.97
2017-08-18T11:16:09.532Z,101048.83
2017-08-18T11:18:37.903Z,101048.69
2017-08-18T11:21:06.673Z,101040.25
2017-08-18T11:23:35.018Z,101047.74
2017-08-18T11:26:03.358Z,101048.02
2017-08-18T11:28:32.248Z,101054.34
2017-08-18T11:31:00.617Z,101060.34
2017-08-18T11:33:28.974Z,101055.14
2017-08-18T11:35:57.691Z,101050.56
2017-08-18T11:38:26.090Z,101040.44
2017-08-18T11:40:54.463Z,101042.89
2017-08-18T11:43:23.144Z,101028.23
2017-08-18T11:45:51.489Z,101032.91
2017-08-18T11:48:20.631Z,101033.07
2017-08-18T11:50:49.703Z,101041.92
2017-08-18T11:53:18.087Z,101044.88
2017-08-18T11:55:46.428Z,101046.55
2017-08-18T11:58:15.270Z,101049.12
2017-08-18T12:00:43.654Z,101051.23
2017-08-18T12:03:11.999Z,101045.19
2017-08-18T12:05:40.629Z,101032.84
2017-08-18T12:08:08.971Z,101028.09
2017-08-18T12:10:37.320Z,101010.67
2017-08-18T12:13:07.174Z,100996.09
2017-08-18T12:15:35.567Z,101002.46
2017-08-18T12:18:03.915Z,101007.05
2017-08-18T12:20:32.611Z,101003.54
2017-08-18T12:23:00.946Z,101009.03
2017-08-18T12:25:29.277Z,101005.78
2017-08-18T12:27:58.060Z,101005.63
2017-08-18T12:30:26.443Z,101000.61
2017-08-18T12:32:54.797Z,100998.12
2017-08-18T12:35:23.687Z,100988.84
2017-08-18T12:37:52.067Z,100994.30
2017-08-18T12:40:20.447Z,100989.84
2017-08-18T12:42:49.085Z,100988.25
2017-08-18T12:45:17.430Z,100976.41
2017-08-18T12:47:45.805Z,100972.45
2017-08-18T12:50:14.493Z,100955.13
2017-08-18T12:52:42.858Z,100951.47
2017-08-18T12:55:11.202Z,100951.84
2017-08-18T12:57:40.254Z,100941.63
2017-08-18T13:00:08.604Z,100929.13
2017-08-18T13:02:36.964Z,100925.77
2017-08-18T13:05:05.718Z,100935.45
2017-08-18T13:07:34.096Z,100943.20
2017-08-18T13:10:02.458Z,100948.48
2017-08-18T13:12:31.089Z,100951.03
2017-08-18T13:14:59.438Z,100958.16
2017-08-18T13:17:27.798Z,100959.09
2017-08-18T13:19:56.799Z,100969.52
2017-08-18T13:22:25.192Z,100967.41
2017-08-18T13:24:53.557Z,100965.20
2017-08-18T13:27:22.417Z,100958.38
2017-08-18T13:29:50.758Z,100958.30
2017-08-18T13:32:19.113Z,100957.79
2017-08-18T13:34:47.862Z,100958.31
2017-08-18T13:37:16.260Z,100961.59
2017-08-18T13:39:44.639Z,100964.16
2017-08-18T13:42:13.365Z,100954.95
2017-08-18T13:44:41.733Z,100958.55
2017-08-18T13:47:10.084Z,100951.70
2017-08-18T13:49:38.977Z,100952.64
2017-08-18T13:52:07.326Z,100963.58
2017-08-18T13:54:35.650Z,100965.42
2017-08-18T13:57:04.427Z,100962.30
2017-08-18T13:59:32.779Z,100958.92
2017-08-18T14:02:01.886Z,100957.34
2017-08-18T14:04:31.407Z,100947.72
2017-08-18T14:06:59.734Z,100942.42
2017-08-18T14:09:28.093Z,100941.63
2017-08-18T14:11:56.758Z,100937.41
2017-08-18T14:14:25.108Z,100937.92
2017-08-18T14:16:53.491Z,100936.41
2017-08-18T14:19:22.502Z,100934.38
2017-08-18T14:21:50.951Z,100929.45
2017-08-18T14:24:19.306Z,100924.63
2017-08-18T14:26:53.883Z,100920.17
2017-08-18T14:29:22.497Z,100921.30
2017-08-18T14:31:50.850Z,100918.73
2017-08-18T14:34:19.551Z,100920.85
2017-08-18T14:36:47.919Z,100924.16
2017-08-18T14:39:16.264Z,100922.38
2017-08-18T14:41:45.766Z,100922.02
2017-08-18T14:44:14.129Z,100906.40
2017-08-18T14:46:42.487Z,100904.34
2017-08-18T14:49:11.476Z,100904.52
2017-08-18T14:51:39.844Z,100900.43
2017-08-18T14:54:08.207Z,100898.77
2017-08-18T14:56:36.928Z,100893.02
2017-08-18T14:59:05.287Z,100891.23
2017-08-18T15:01:33.981Z,100883.44
2017-08-18T15:04:03.423Z,100886.73
2017-08-18T15:06:31.791Z,100880.94
2017-08-18T15:09:00.150Z,100879.96
2017-08-18T15:11:29.095Z,100877.56
2017-08-18T15:13:57.455Z,100872.18
2017-08-18T15:16:25.805Z,100866.45
2017-08-18T15:18:54.435Z,100871.92
2017-08-18T15:21:23.543Z,100870.11
2017-08-18T15:23:52.670Z,100870.47
2017-08-18T15:26:21.439Z,100867.41
2017-08-18T15:28:49.783Z,100872.85
2017-08-18T15:31:18.131Z,100869.55
2017-08-18T15:33:47.297Z,100868.78
2017-08-18T15:36:15.642Z,100862.78
2017-08-18T15:38:44.781Z,100859.37
2017-08-18T15:41:13.772Z,100859.60
2017-08-18T15:43:42.104Z,100848.59
2017-08-18T15:46:10.447Z,100853.59
2017-08-18T15:48:39.206Z,100846.86
2017-08-18T15:51:07.551Z,100856.97
2017-08-18T15:53:35.893Z,100848.93
2017-08-18T15:56:04.799Z,100850.64
2017-08-18T15:58:33.164Z,100845.06
2017-08-18T16:01:01.511Z,100850.35
2017-08-18T16:03:30.127Z,100849.80
2017-08-18T16:05:58.468Z,100843.27
2017-08-18T16:08:26.830Z,100843.77
2017-08-18T16:10:55.572Z,100847.16
2017-08-18T16:13:23.946Z,100846.14
2017-08-18T16:15:52.286Z,100837.03
2017-08-18T16:18:21.042Z,100846.05
2017-08-18T16:20:49.420Z,100836.31
2017-08-18T16:23:17.779Z,100833.76
2017-08-18T16:25:46.487Z,100837.24
2017-08-18T16:28:14.893Z,100840.59
2017-08-18T16:30:43.273Z,100836.84
2017-08-18T16:33:12.918Z,100831.30
2017-08-18T16:35:41.255Z,100830.50
2017-08-18T16:38:10.399Z,100824.14
2017-08-18T16:40:39.087Z,100827.41
2017-08-18T16:43:07.500Z,100824.23
2017-08-18T16:45:35.871Z,100823.37
2017-08-18T16:48:04.507Z,100815.34
2017-08-18T16:50:32.859Z,100816.94
2017-08-18T16:53:01.220Z,100826.80
2017-08-18T16:55:29.879Z,100836.83
2017-08-18T16:57:58.231Z,100831.59
2017-08-18T17:00:26.570Z,100834.00
2017-08-18T17:02:55.720Z,100837.80
2017-08-18T17:05:24.068Z,100838.23
2017-08-18T17:07:53.157Z,100839.90
2017-08-18T17:10:21.961Z,100846.63
2017-08-18T17:12:50.302Z,100851.66
2017-08-18T17:15:18.663Z,100855.98
2017-08-18T17:17:47.418Z,100854.35
2017-08-18T17:20:15.803Z,100859.20
2017-08-18T17:22:44.147Z,100862.36
2017-08-18T17:25:12.968Z,100859.30
2017-08-18T17:27:41.313Z,100856.91
2017-08-18T17:30:09.670Z,100861.03
2017-08-18T17:32:38.519Z,100857.18
2017-08-18T17:35:06.874Z,100854.45
2017-08-18T17:37:35.984Z,100857.55
2017-08-18T17:40:04.615Z,100856.21
2017-08-18T17:42:32.951Z,100857.29
2017-08-18T17:45:01.282Z,100856.63
2017-08-18T17:47:30.224Z,100865.57
2017-08-18T17:49:58.583Z,100871.34
2017-08-18T17:52:27.702Z,100866.83
2017-08-18T17:54:56.706Z,100875.88
2017-08-18T17:57:25.079Z,100874.95
2017-08-18T17:59:53.422Z,100873.85
2017-08-18T18:02:22.050Z,100881.05
2017-08-18T18:04:50.398Z,100878.48
2017-08-18T18:07:18.735Z,100887.42
2017-08-18T18:09:47.668Z,100875.18
2017-08-18T18:12:16.799Z,100885.44
2017-08-18T18:14:45.156Z,100886.34
2017-08-18T18:17:13.795Z,100881.97
2017-08-18T18:19:42.162Z,100880.30
2017-08-18T18:22:10.637Z,100880.35
2017-08-18T18:24:39.303Z,100880.31
2017-08-18T18:27:07.642Z,100878.95
2017-08-18T18:29:35.982Z,100885.14
2017-08-18T18:32:04.744Z,100878.98
2017-08-18T18:34:33.095Z,100882.67
2017-08-18T18:37:02.247Z,100876.34
2017-08-18T18:39:31.017Z,100871.91
2017-08-18T18:42:00.118Z,100872.34
2017-08-18T18:44:30.603Z,100868.08
2017-08-18T18:46:59.316Z,100865.33
2017-08-18T18:49:27.683Z,100852.47
2017-08-18T18:51:56.063Z,100853.54
2017-08-18T18:54:25.048Z,100855.46
2017-08-18T18:56:54.169Z,100857.66
2017-08-18T18:59:22.548Z,100871.17
2017-08-18T19:01:51.257Z,100869.88
2017-08-18T19:04:19.643Z,100864.83
2017-08-18T19:06:48.035Z,100865.23
2017-08-18T19:09:16.630Z,100863.67
2017-08-18T19:11:44.991Z,100866.53
2017-08-18T19:14:13.355Z,100850.39
2017-08-18T19:16:41.955Z,100844.53
2017-08-18T19:19:10.323Z,100846.57
2017-08-18T19:21:38.694Z,100840.30
2017-08-18T19:24:07.281Z,100837.64
2017-08-18T19:26:35.652Z,100842.59
2017-08-18T19:29:03.987Z,100835.95
2017-08-18T19:31:32.517Z,100823.36
2017-08-18T19:34:00.874Z,100819.19
2017-08-18T19:36:29.223Z,100819.83
2017-08-18T19:38:58.938Z,100814.42
2017-08-18T19:41:28.083Z,100812.28
2017-08-18T19:43:56.440Z,100811.99
2017-08-18T19:46:25.146Z,100814.95
2017-08-18T19:48:53.507Z,100809.87
2017-08-18T19:51:21.864Z,100804.41
2017-08-18T19:53:50.582Z,100809.54
2017-08-18T19:56:18.989Z,100816.92
2017-08-18T19:58:47.379Z,100823.95
2017-08-18T20:01:15.980Z,100828.67
2017-08-18T20:03:44.321Z,100822.88
2017-08-18T20:06:12.683Z,100821.92
2017-08-18T20:08:41.283Z,100827.61
2017-08-18T20:11:09.618Z,100828.47
2017-08-18T20:13:37.966Z,100826.31
2017-08-18T20:16:06.734Z,100819.78
2017-08-18T20:18:35.102Z,100828.50
2017-08-18T20:21:03.452Z,100831.30
2017-08-18T20:23:32.318Z,100830.27
2017-08-18T20:26:00.712Z,100834.02
2017-08-18T20:28:29.837Z,100838.05
2017-08-18T20:30:58.401Z,100848.53
2017-08-18T20:33:26.802Z,100830.14
2017-08-18T20:35:55.156Z,100836.00
2017-08-18T20:38:23.893Z,100855.11
2017-08-18T20:40:52.246Z,100853.33
2017-08-18T20:43:20.606Z,100854.94
2017-08-18T20:45:49.288Z,100854.88
2017-08-18T20:48:17.651Z,100870.23
2017-08-18T20:50:46.004Z,100868.80
2017-08-18T20:53:14.767Z,100874.59
2017-08-18T20:55:43.110Z,100877.21
2017-08-18T20:58:11.481Z,100873.03
2017-08-18T21:00:40.212Z,100887.68
2017-08-18T21:03:08.553Z,100892.17
2017-08-18T21:05:37.690Z,100884.34
2017-08-18T21:08:06.367Z,100888.39
2017-08-18T21:10:34.710Z,100889.56
2017-08-18T21:13:03.065Z,100890.63
2017-08-18T21:15:31.920Z,100892.53
2017-08-18T21:18:00.289Z,100901.27
2017-08-18T21:20:28.672Z,100901.34
2017-08-18T21:22:57.353Z,100901.89
2017-08-18T21:25:25.764Z,100908.50
2017-08-18T21:27:54.117Z,100906.42
2017-08-18T21:30:23.001Z,100906.09
2017-08-18T21:32:51.352Z,100901.16
2017-08-18T21:35:20.474Z,100894.44
2017-08-18T21:37:49.026Z,100896.22
2017-08-18T21:40:17.378Z,100906.69
2017-08-18T21:42:45.774Z,100895.23
2017-08-18T21:45:14.522Z,100890.81
2017-08-18T21:47:42.915Z,100890.12
2017-08-18T21:50:11.283Z,100876.84
2017-08-18T21:52:39.869Z,100878.51
2017-08-18T21:55:08.207Z,100883.08
2017-08-18T21:57:36.556Z,100885.53
2017-08-18T22:00:05.207Z,100872.42
2017-08-18T22:02:33.575Z,100870.19
2017-08-18T22:05:01.937Z,100870.20
2017-08-18T22:07:30.509Z,100875.16
2017-08-18T22:09:59.640Z,100874.40
2017-08-18T22:12:27.976Z,100878.13
2017-08-18T22:14:56.708Z,100878.31
2017-08-18T22:17:25.071Z,100882.42
2017-08-18T22:19:53.418Z,100880.58
2017-08-18T22:22:21.949Z,100890.63
2017-08-18T22:24:50.308Z,100889.53
2017-08-18T22:27:18.657Z,100889.82
2017-08-18T22:29:47.239Z,100892.04
2017-08-18T22:32:15.601Z,100887.64
2017-08-18T22:34:43.943Z,100889.60
2017-08-18T22:37:12.826Z,100894.72
2017-08-18T22:39:41.195Z,100894.13
2017-08-18T22:42:10.311Z,100891.56
2017-08-18T22:44:39.241Z,100904.38
2017-08-18T22:47:07.596Z,100903.47
2017-08-18T22:49:35.978Z,100900.02
2017-08-18T22:52:04.536Z,100904.84
2017-08-18T22:54:32.885Z,100909.81
2017-08-18T22:57:01.262Z,100912.24
2017-08-18T22:59:29.947Z,100911.80
2017-08-18T23:01:58.312Z,100913.66
2017-08-18T23:04:26.644Z,100913.06
2017-08-18T23:06:55.439Z,100910.87
2017-08-18T23:09:23.869Z,100920.27
2017-08-18T23:11:52.227Z,100917.73
2017-08-18T23:14:20.883Z,100909.62
2017-08-18T23:16:49.263Z,100907.93
2017-08-18T23:19:17.627Z,100907.19
2017-08-18T23:21:46.743Z,100908.56
2017-08-18T23:24:15.115Z,100914.36
2017-08-18T23:26:43.463Z,100918.08
2017-08-18T23:29:12.166Z,100913.79
2017-08-18T23:31:40.509Z,100920.54
2017-08-18T23:34:08.851Z,100922.55
2017-08-18T23:36:37.614Z,100914.54
2017-08-18T23:39:06.006Z,100915.63
2017-08-18T23:41:34.351Z,100905.72
2017-08-18T23:44:03.218Z,100899.24
2017-08-18T23:46:31.566Z,100906.98
2017-08-18T23:48:59.923Z,100910.25
2017-08-18T23:51:28.468Z,100903.98
2017-08-18T23:53:56.842Z,100904.94
2017-08-18T23:56:25.240Z,100892.91
2017-08-18T23:58:53.780Z,100898.65
